sensor_id;sensor_type;location;lat;lon;timestamp;P1;durP1;ratioP1;P2;durP2;ratioP2
51459;SDS011;37534;39.772;2.718;2024-03-07T00:02:39;14.10;;;7.40;;
51459;SDS011;37534;39.772;2.718;2024-03-07T00:05:13;8.35;;;7.30;;
51459;SDS011;37534;39.772;2.718;2024-03-07T00:07:39;8.00;;;6.55;;
51459;SDS011;37534;39.772;2.718;2024-03-07T00:10:05;8.05;;;6.97;;
51459;SDS011;37534;39.772;2.718;2024-03-07T00:12:35;7.97;;;6.80;;
51459;SDS011;37534;39.772;2.718;2024-03-07T00:15:02;8.98;;;7.00;;
51459;SDS011;37534;39.772;2.718;2024-03-07T00:17:28;8.60;;;7.07;;
51459;SDS011;37534;39.772;2.718;2024-03-07T00:19:54;7.55;;;6.75;;
51459;SDS011;37534;39.772;2.718;2024-03-07T00:22:19;6.72;;;5.55;;
51459;SDS011;37534;39.772;2.718;2024-03-07T00:24:45;7.32;;;6.00;;
51459;SDS011;37534;39.772;2.718;2024-03-07T00:27:12;5.38;;;4.88;;
51459;SDS011;37534;39.772;2.718;2024-03-07T00:29:40;6.05;;;5.47;;
51459;SDS011;37534;39.772;2.718;2024-03-07T00:32:05;6.18;;;5.57;;
51459;SDS011;37534;39.772;2.718;2024-03-07T00:34:32;8.85;;;6.40;;
51459;SDS011;37534;39.772;2.718;2024-03-07T00:36:58;12.30;;;6.40;;
51459;SDS011;37534;39.772;2.718;2024-03-07T00:39:24;7.50;;;5.97;;
51459;SDS011;37534;39.772;2.718;2024-03-07T00:41:50;8.48;;;7.10;;
51459;SDS011;37534;39.772;2.718;2024-03-07T00:44:15;8.38;;;6.35;;
51459;SDS011;37534;39.772;2.718;2024-03-07T00:46:41;13.35;;;6.00;;
51459;SDS011;37534;39.772;2.718;2024-03-07T00:49:06;7.22;;;6.50;;
51459;SDS011;37534;39.772;2.718;2024-03-07T00:51:32;9.35;;;5.95;;
51459;SDS011;37534;39.772;2.718;2024-03-07T00:53:58;9.18;;;6.28;;
51459;SDS011;37534;39.772;2.718;2024-03-07T00:56:23;6.53;;;5.60;;
51459;SDS011;37534;39.772;2.718;2024-03-07T00:58:49;8.07;;;6.15;;
51459;SDS011;37534;39.772;2.718;2024-03-07T01:01:15;6.10;;;4.70;;
51459;SDS011;37534;39.772;2.718;2024-03-07T01:03:42;5.25;;;4.72;;
51459;SDS011;37534;39.772;2.718;2024-03-07T01:06:08;7.78;;;6.35;;
51459;SDS011;37534;39.772;2.718;2024-03-07T01:08:35;8.32;;;6.65;;
51459;SDS011;37534;39.772;2.718;2024-03-07T01:11:02;7.55;;;5.72;;
51459;SDS011;37534;39.772;2.718;2024-03-07T01:13:40;9.48;;;5.43;;
51459;SDS011;37534;39.772;2.718;2024-03-07T01:16:06;8.38;;;5.43;;
51459;SDS011;37534;39.772;2.718;2024-03-07T01:18:32;8.82;;;5.80;;
51459;SDS011;37534;39.772;2.718;2024-03-07T01:21:02;8.27;;;5.05;;
51459;SDS011;37534;39.772;2.718;2024-03-07T01:23:28;5.38;;;4.88;;
51459;SDS011;37534;39.772;2.718;2024-03-07T01:25:57;6.63;;;5.80;;
51459;SDS011;37534;39.772;2.718;2024-03-07T01:28:24;7.45;;;5.70;;
51459;SDS011;37534;39.772;2.718;2024-03-07T01:30:51;5.35;;;4.85;;
51459;SDS011;37534;39.772;2.718;2024-03-07T01:33:17;5.22;;;4.68;;
51459;SDS011;37534;39.772;2.718;2024-03-07T01:35:46;4.95;;;4.45;;
51459;SDS011;37534;39.772;2.718;2024-03-07T01:38:11;11.45;;;4.88;;
51459;SDS011;37534;39.772;2.718;2024-03-07T01:40:41;5.30;;;3.70;;
51459;SDS011;37534;39.772;2.718;2024-03-07T01:43:08;5.70;;;4.53;;
51459;SDS011;37534;39.772;2.718;2024-03-07T01:45:35;4.60;;;3.20;;
51459;SDS011;37534;39.772;2.718;2024-03-07T01:48:05;5.65;;;5.10;;
51459;SDS011;37534;39.772;2.718;2024-03-07T01:50:34;3.15;;;2.85;;
51459;SDS011;37534;39.772;2.718;2024-03-07T01:53:03;3.60;;;3.30;;
51459;SDS011;37534;39.772;2.718;2024-03-07T01:55:31;4.28;;;3.42;;
51459;SDS011;37534;39.772;2.718;2024-03-07T01:57:58;2.47;;;2.28;;
51459;SDS011;37534;39.772;2.718;2024-03-07T02:00:26;3.28;;;2.83;;
51459;SDS011;37534;39.772;2.718;2024-03-07T02:02:53;3.70;;;2.45;;
51459;SDS011;37534;39.772;2.718;2024-03-07T02:05:20;3.10;;;1.67;;
51459;SDS011;37534;39.772;2.718;2024-03-07T02:07:48;1.98;;;1.88;;
51459;SDS011;37534;39.772;2.718;2024-03-07T02:10:15;4.03;;;3.33;;
51459;SDS011;37534;39.772;2.718;2024-03-07T02:12:41;3.63;;;3.28;;
51459;SDS011;37534;39.772;2.718;2024-03-07T02:15:07;3.65;;;3.15;;
51459;SDS011;37534;39.772;2.718;2024-03-07T02:17:33;5.07;;;3.47;;
51459;SDS011;37534;39.772;2.718;2024-03-07T02:20:00;3.05;;;1.73;;
51459;SDS011;37534;39.772;2.718;2024-03-07T02:22:25;6.65;;;2.00;;
51459;SDS011;37534;39.772;2.718;2024-03-07T02:24:51;3.97;;;2.85;;
51459;SDS011;37534;39.772;2.718;2024-03-07T02:27:17;1.40;;;1.20;;
51459;SDS011;37534;39.772;2.718;2024-03-07T02:29:42;1.27;;;1.10;;
51459;SDS011;37534;39.772;2.718;2024-03-07T02:32:08;1.52;;;1.17;;
51459;SDS011;37534;39.772;2.718;2024-03-07T02:34:35;1.52;;;1.42;;
51459;SDS011;37534;39.772;2.718;2024-03-07T02:37:00;1.15;;;1.10;;
51459;SDS011;37534;39.772;2.718;2024-03-07T02:39:26;1.05;;;0.90;;
51459;SDS011;37534;39.772;2.718;2024-03-07T02:41:51;1.00;;;1.00;;
51459;SDS011;37534;39.772;2.718;2024-03-07T02:44:17;4.50;;;1.45;;
51459;SDS011;37534;39.772;2.718;2024-03-07T02:46:43;4.15;;;1.13;;
51459;SDS011;37534;39.772;2.718;2024-03-07T02:49:08;1.42;;;1.33;;
51459;SDS011;37534;39.772;2.718;2024-03-07T02:51:34;2.85;;;1.38;;
51459;SDS011;37534;39.772;2.718;2024-03-07T02:54:00;1.33;;;0.70;;
51459;SDS011;37534;39.772;2.718;2024-03-07T02:56:26;0.70;;;0.70;;
51459;SDS011;37534;39.772;2.718;2024-03-07T02:58:52;1.85;;;0.82;;
51459;SDS011;37534;39.772;2.718;2024-03-07T03:01:18;4.90;;;0.80;;
51459;SDS011;37534;39.772;2.718;2024-03-07T03:03:43;0.85;;;0.80;;
51459;SDS011;37534;39.772;2.718;2024-03-07T03:06:09;1.50;;;1.10;;
51459;SDS011;37534;39.772;2.718;2024-03-07T03:08:36;0.60;;;0.60;;
51459;SDS011;37534;39.772;2.718;2024-03-07T03:11:02;2.78;;;0.80;;
51459;SDS011;37534;39.772;2.718;2024-03-07T03:13:28;3.22;;;0.93;;
51459;SDS011;37534;39.772;2.718;2024-03-07T03:15:54;1.25;;;1.05;;
51459;SDS011;37534;39.772;2.718;2024-03-07T03:18:23;0.85;;;0.82;;
51459;SDS011;37534;39.772;2.718;2024-03-07T03:20:49;3.45;;;0.90;;
51459;SDS011;37534;39.772;2.718;2024-03-07T03:23:15;1.52;;;0.80;;
51459;SDS011;37534;39.772;2.718;2024-03-07T03:25:41;1.33;;;1.08;;
51459;SDS011;37534;39.772;2.718;2024-03-07T03:28:08;0.95;;;0.95;;
51459;SDS011;37534;39.772;2.718;2024-03-07T03:30:40;1.10;;;0.80;;
51459;SDS011;37534;39.772;2.718;2024-03-07T03:33:06;1.35;;;0.85;;
51459;SDS011;37534;39.772;2.718;2024-03-07T03:35:33;1.15;;;0.82;;
51459;SDS011;37534;39.772;2.718;2024-03-07T03:37:59;1.00;;;0.68;;
51459;SDS011;37534;39.772;2.718;2024-03-07T03:40:25;0.75;;;0.60;;
51459;SDS011;37534;39.772;2.718;2024-03-07T03:42:50;1.42;;;0.63;;
51459;SDS011;37534;39.772;2.718;2024-03-07T03:45:16;0.60;;;0.60;;
51459;SDS011;37534;39.772;2.718;2024-03-07T03:47:42;0.88;;;0.88;;
51459;SDS011;37534;39.772;2.718;2024-03-07T03:50:09;3.65;;;0.80;;
51459;SDS011;37534;39.772;2.718;2024-03-07T03:52:36;0.70;;;0.70;;
51459;SDS011;37534;39.772;2.718;2024-03-07T03:55:03;1.17;;;0.73;;
51459;SDS011;37534;39.772;2.718;2024-03-07T03:57:30;0.75;;;0.70;;
51459;SDS011;37534;39.772;2.718;2024-03-07T03:59:56;5.35;;;0.70;;
51459;SDS011;37534;39.772;2.718;2024-03-07T04:02:22;0.80;;;0.70;;
51459;SDS011;37534;39.772;2.718;2024-03-07T04:04:51;1.10;;;0.60;;
51459;SDS011;37534;39.772;2.718;2024-03-07T04:07:19;6.43;;;1.25;;
51459;SDS011;37534;39.772;2.718;2024-03-07T04:09:45;1.13;;;0.80;;
51459;SDS011;37534;39.772;2.718;2024-03-07T04:12:10;0.30;;;0.30;;
51459;SDS011;37534;39.772;2.718;2024-03-07T04:14:40;0.77;;;0.77;;
51459;SDS011;37534;39.772;2.718;2024-03-07T04:17:08;0.47;;;0.35;;
51459;SDS011;37534;39.772;2.718;2024-03-07T04:19:40;3.97;;;2.45;;
51459;SDS011;37534;39.772;2.718;2024-03-07T04:22:07;2.22;;;1.65;;
51459;SDS011;37534;39.772;2.718;2024-03-07T04:24:36;1.33;;;1.23;;
51459;SDS011;37534;39.772;2.718;2024-03-07T04:27:02;2.30;;;1.95;;
51459;SDS011;37534;39.772;2.718;2024-03-07T04:29:31;2.65;;;2.00;;
51459;SDS011;37534;39.772;2.718;2024-03-07T04:31:58;3.45;;;2.75;;
51459;SDS011;37534;39.772;2.718;2024-03-07T04:34:24;3.25;;;2.95;;
51459;SDS011;37534;39.772;2.718;2024-03-07T04:36:50;3.60;;;3.08;;
51459;SDS011;37534;39.772;2.718;2024-03-07T04:39:15;3.22;;;2.65;;
51459;SDS011;37534;39.772;2.718;2024-03-07T04:41:57;5.32;;;3.10;;
51459;SDS011;37534;39.772;2.718;2024-03-07T04:44:27;4.93;;;2.78;;
51459;SDS011;37534;39.772;2.718;2024-03-07T04:46:56;2.40;;;2.05;;
51459;SDS011;37534;39.772;2.718;2024-03-07T04:49:23;3.25;;;1.30;;
51459;SDS011;37534;39.772;2.718;2024-03-07T04:51:50;1.15;;;0.80;;
51459;SDS011;37534;39.772;2.718;2024-03-07T04:54:16;1.70;;;1.15;;
51459;SDS011;37534;39.772;2.718;2024-03-07T04:56:43;1.98;;;1.30;;
51459;SDS011;37534;39.772;2.718;2024-03-07T04:59:09;1.48;;;0.95;;
51459;SDS011;37534;39.772;2.718;2024-03-07T05:01:37;1.23;;;1.10;;
51459;SDS011;37534;39.772;2.718;2024-03-07T05:04:03;1.50;;;0.60;;
51459;SDS011;37534;39.772;2.718;2024-03-07T05:06:29;0.63;;;0.60;;
51459;SDS011;37534;39.772;2.718;2024-03-07T05:08:55;1.70;;;1.20;;
51459;SDS011;37534;39.772;2.718;2024-03-07T05:11:21;1.40;;;0.90;;
51459;SDS011;37534;39.772;2.718;2024-03-07T05:13:46;0.75;;;0.60;;
51459;SDS011;37534;39.772;2.718;2024-03-07T05:16:13;0.63;;;0.45;;
51459;SDS011;37534;39.772;2.718;2024-03-07T05:18:39;0.85;;;0.70;;
51459;SDS011;37534;39.772;2.718;2024-03-07T05:21:05;0.82;;;0.82;;
51459;SDS011;37534;39.772;2.718;2024-03-07T05:23:51;1.50;;;0.90;;
51459;SDS011;37534;39.772;2.718;2024-03-07T05:26:16;1.15;;;0.63;;
51459;SDS011;37534;39.772;2.718;2024-03-07T05:28:42;10.90;;;0.98;;
51459;SDS011;37534;39.772;2.718;2024-03-07T05:31:08;1.38;;;0.85;;
51459;SDS011;37534;39.772;2.718;2024-03-07T05:33:37;1.33;;;0.95;;
51459;SDS011;37534;39.772;2.718;2024-03-07T05:36:03;0.65;;;0.60;;
51459;SDS011;37534;39.772;2.718;2024-03-07T05:38:40;2.10;;;0.95;;
51459;SDS011;37534;39.772;2.718;2024-03-07T05:41:08;2.40;;;1.00;;
51459;SDS011;37534;39.772;2.718;2024-03-07T05:43:40;0.90;;;0.85;;
51459;SDS011;37534;39.772;2.718;2024-03-07T05:46:06;1.50;;;0.82;;
51459;SDS011;37534;39.772;2.718;2024-03-07T05:48:36;0.60;;;0.60;;
51459;SDS011;37534;39.772;2.718;2024-03-07T05:51:02;0.70;;;0.68;;
51459;SDS011;37534;39.772;2.718;2024-03-07T05:53:27;1.63;;;0.80;;
51459;SDS011;37534;39.772;2.718;2024-03-07T05:55:53;2.00;;;0.85;;
51459;SDS011;37534;39.772;2.718;2024-03-07T05:58:19;1.63;;;0.82;;
51459;SDS011;37534;39.772;2.718;2024-03-07T06:00:45;1.15;;;1.05;;
51459;SDS011;37534;39.772;2.718;2024-03-07T06:03:15;3.03;;;1.02;;
51459;SDS011;37534;39.772;2.718;2024-03-07T06:05:43;2.95;;;1.15;;
51459;SDS011;37534;39.772;2.718;2024-03-07T06:08:09;0.75;;;0.73;;
51459;SDS011;37534;39.772;2.718;2024-03-07T06:10:34;1.60;;;0.90;;
51459;SDS011;37534;39.772;2.718;2024-03-07T06:13:00;1.50;;;0.98;;
51459;SDS011;37534;39.772;2.718;2024-03-07T06:15:25;0.88;;;0.88;;
51459;SDS011;37534;39.772;2.718;2024-03-07T06:17:51;0.75;;;0.75;;
51459;SDS011;37534;39.772;2.718;2024-03-07T06:20:16;1.00;;;0.90;;
51459;SDS011;37534;39.772;2.718;2024-03-07T06:22:51;2.17;;;1.10;;
51459;SDS011;37534;39.772;2.718;2024-03-07T06:25:20;1.15;;;0.70;;
51459;SDS011;37534;39.772;2.718;2024-03-07T06:27:58;2.65;;;1.38;;
51459;SDS011;37534;39.772;2.718;2024-03-07T06:30:24;5.47;;;1.42;;
51459;SDS011;37534;39.772;2.718;2024-03-07T06:32:51;1.92;;;0.90;;
51459;SDS011;37534;39.772;2.718;2024-03-07T06:35:16;1.15;;;1.15;;
51459;SDS011;37534;39.772;2.718;2024-03-07T06:37:44;1.90;;;1.00;;
51459;SDS011;37534;39.772;2.718;2024-03-07T06:40:10;29.77;;;3.65;;
51459;SDS011;37534;39.772;2.718;2024-03-07T06:42:36;12.93;;;2.05;;
51459;SDS011;37534;39.772;2.718;2024-03-07T06:45:04;1.00;;;1.00;;
51459;SDS011;37534;39.772;2.718;2024-03-07T06:47:31;8.65;;;3.42;;
51459;SDS011;37534;39.772;2.718;2024-03-07T06:49:56;16.45;;;4.15;;
51459;SDS011;37534;39.772;2.718;2024-03-07T06:52:22;6.28;;;4.13;;
51459;SDS011;37534;39.772;2.718;2024-03-07T06:54:47;10.48;;;3.13;;
51459;SDS011;37534;39.772;2.718;2024-03-07T06:57:13;2.38;;;1.55;;
51459;SDS011;37534;39.772;2.718;2024-03-07T06:59:38;12.07;;;1.83;;
51459;SDS011;37534;39.772;2.718;2024-03-07T07:02:04;5.60;;;2.03;;
51459;SDS011;37534;39.772;2.718;2024-03-07T07:04:29;14.73;;;2.67;;
51459;SDS011;37534;39.772;2.718;2024-03-07T07:07:06;2.45;;;2.30;;
51459;SDS011;37534;39.772;2.718;2024-03-07T07:09:33;4.20;;;2.28;;
51459;SDS011;37534;39.772;2.718;2024-03-07T07:12:00;8.15;;;3.20;;
51459;SDS011;37534;39.772;2.718;2024-03-07T07:14:28;6.20;;;2.83;;
51459;SDS011;37534;39.772;2.718;2024-03-07T07:16:54;55.45;;;7.15;;
51459;SDS011;37534;39.772;2.718;2024-03-07T07:19:21;5.10;;;3.08;;
51459;SDS011;37534;39.772;2.718;2024-03-07T07:21:47;7.30;;;2.55;;
51459;SDS011;37534;39.772;2.718;2024-03-07T07:24:18;11.13;;;2.42;;
51459;SDS011;37534;39.772;2.718;2024-03-07T07:26:44;21.55;;;2.85;;
51459;SDS011;37534;39.772;2.718;2024-03-07T07:29:10;6.85;;;2.35;;
51459;SDS011;37534;39.772;2.718;2024-03-07T07:31:36;4.20;;;2.72;;
51459;SDS011;37534;39.772;2.718;2024-03-07T07:34:01;3.38;;;2.50;;
51459;SDS011;37534;39.772;2.718;2024-03-07T07:36:29;3.05;;;2.38;;
51459;SDS011;37534;39.772;2.718;2024-03-07T07:38:55;4.65;;;2.65;;
51459;SDS011;37534;39.772;2.718;2024-03-07T07:41:20;4.43;;;4.03;;
51459;SDS011;37534;39.772;2.718;2024-03-07T07:43:46;8.93;;;4.07;;
51459;SDS011;37534;39.772;2.718;2024-03-07T07:46:13;10.90;;;5.20;;
51459;SDS011;37534;39.772;2.718;2024-03-07T07:48:41;9.48;;;5.72;;
51459;SDS011;37534;39.772;2.718;2024-03-07T07:51:06;10.07;;;6.78;;
51459;SDS011;37534;39.772;2.718;2024-03-07T07:53:32;7.18;;;4.95;;
51459;SDS011;37534;39.772;2.718;2024-03-07T07:55:58;6.85;;;5.13;;
51459;SDS011;37534;39.772;2.718;2024-03-07T07:58:24;8.77;;;5.40;;
51459;SDS011;37534;39.772;2.718;2024-03-07T08:00:49;7.30;;;3.92;;
51459;SDS011;37534;39.772;2.718;2024-03-07T08:03:16;11.30;;;9.70;;
51459;SDS011;37534;39.772;2.718;2024-03-07T08:05:43;19.05;;;8.48;;
51459;SDS011;37534;39.772;2.718;2024-03-07T08:08:10;6.40;;;5.75;;
51459;SDS011;37534;39.772;2.718;2024-03-07T08:10:38;8.30;;;6.78;;
51459;SDS011;37534;39.772;2.718;2024-03-07T08:13:06;6.43;;;5.70;;
51459;SDS011;37534;39.772;2.718;2024-03-07T08:15:31;16.95;;;8.20;;
51459;SDS011;37534;39.772;2.718;2024-03-07T08:17:57;18.42;;;5.03;;
51459;SDS011;37534;39.772;2.718;2024-03-07T08:20:24;4.40;;;3.58;;
51459;SDS011;37534;39.772;2.718;2024-03-07T08:22:51;7.15;;;2.47;;
51459;SDS011;37534;39.772;2.718;2024-03-07T08:25:21;6.38;;;2.63;;
51459;SDS011;37534;39.772;2.718;2024-03-07T08:27:50;2.47;;;2.28;;
51459;SDS011;37534;39.772;2.718;2024-03-07T08:30:17;4.15;;;3.30;;
51459;SDS011;37534;39.772;2.718;2024-03-07T08:32:43;7.78;;;4.50;;
51459;SDS011;37534;39.772;2.718;2024-03-07T08:35:11;3.63;;;2.63;;
51459;SDS011;37534;39.772;2.718;2024-03-07T08:40:03;12.57;;;10.75;;
51459;SDS011;37534;39.772;2.718;2024-03-07T08:42:31;18.58;;;13.73;;
51459;SDS011;37534;39.772;2.718;2024-03-07T08:44:59;15.25;;;12.43;;
51459;SDS011;37534;39.772;2.718;2024-03-07T08:47:25;37.20;;;26.30;;
51459;SDS011;37534;39.772;2.718;2024-03-07T08:49:51;30.77;;;18.85;;
51459;SDS011;37534;39.772;2.718;2024-03-07T08:52:16;28.02;;;12.88;;
51459;SDS011;37534;39.772;2.718;2024-03-07T08:54:42;16.63;;;8.77;;
51459;SDS011;37534;39.772;2.718;2024-03-07T08:57:09;11.70;;;5.75;;
51459;SDS011;37534;39.772;2.718;2024-03-07T08:59:34;5.53;;;4.82;;
51459;SDS011;37534;39.772;2.718;2024-03-07T09:02:01;4.65;;;4.18;;
51459;SDS011;37534;39.772;2.718;2024-03-07T09:04:27;5.15;;;2.72;;
51459;SDS011;37534;39.772;2.718;2024-03-07T09:06:54;3.72;;;2.75;;
51459;SDS011;37534;39.772;2.718;2024-03-07T09:09:19;5.82;;;2.70;;
51459;SDS011;37534;39.772;2.718;2024-03-07T09:11:45;5.53;;;2.70;;
51459;SDS011;37534;39.772;2.718;2024-03-07T09:14:10;5.25;;;4.18;;
51459;SDS011;37534;39.772;2.718;2024-03-07T09:16:37;5.03;;;4.07;;
51459;SDS011;37534;39.772;2.718;2024-03-07T09:19:03;4.97;;;2.20;;
51459;SDS011;37534;39.772;2.718;2024-03-07T09:21:28;2.50;;;1.98;;
51459;SDS011;37534;39.772;2.718;2024-03-07T09:23:54;2.65;;;1.25;;
51459;SDS011;37534;39.772;2.718;2024-03-07T09:26:20;0.95;;;0.95;;
51459;SDS011;37534;39.772;2.718;2024-03-07T09:28:46;2.10;;;1.65;;
51459;SDS011;37534;39.772;2.718;2024-03-07T09:31:14;2.25;;;1.85;;
51459;SDS011;37534;39.772;2.718;2024-03-07T09:33:40;4.40;;;2.03;;
51459;SDS011;37534;39.772;2.718;2024-03-07T09:36:05;2.97;;;2.58;;
51459;SDS011;37534;39.772;2.718;2024-03-07T09:38:32;6.53;;;2.20;;
51459;SDS011;37534;39.772;2.718;2024-03-07T09:40:57;2.17;;;1.95;;
51459;SDS011;37534;39.772;2.718;2024-03-07T09:43:24;3.00;;;1.52;;
51459;SDS011;37534;39.772;2.718;2024-03-07T09:45:53;1.70;;;1.60;;
51459;SDS011;37534;39.772;2.718;2024-03-07T09:48:20;11.55;;;3.33;;
51459;SDS011;37534;39.772;2.718;2024-03-07T09:50:50;9.75;;;3.50;;
51459;SDS011;37534;39.772;2.718;2024-03-07T09:53:20;3.70;;;2.42;;
51459;SDS011;37534;39.772;2.718;2024-03-07T09:55:46;17.30;;;12.93;;
51459;SDS011;37534;39.772;2.718;2024-03-07T09:58:13;19.50;;;15.90;;
51459;SDS011;37534;39.772;2.718;2024-03-07T10:00:44;3.90;;;1.67;;
51459;SDS011;37534;39.772;2.718;2024-03-07T10:03:12;2.75;;;1.52;;
51459;SDS011;37534;39.772;2.718;2024-03-07T10:05:40;3.15;;;2.78;;
51459;SDS011;37534;39.772;2.718;2024-03-07T10:08:06;1.88;;;0.95;;
51459;SDS011;37534;39.772;2.718;2024-03-07T10:10:32;1.63;;;1.10;;
51459;SDS011;37534;39.772;2.718;2024-03-07T10:12:58;3.92;;;2.30;;
51459;SDS011;37534;39.772;2.718;2024-03-07T10:15:31;1.77;;;1.05;;
51459;SDS011;37534;39.772;2.718;2024-03-07T10:17:59;1.42;;;0.90;;
51459;SDS011;37534;39.772;2.718;2024-03-07T10:20:25;1.25;;;1.17;;
51459;SDS011;37534;39.772;2.718;2024-03-07T10:22:52;1.60;;;0.73;;
51459;SDS011;37534;39.772;2.718;2024-03-07T10:25:18;2.17;;;1.13;;
51459;SDS011;37534;39.772;2.718;2024-03-07T10:27:46;6.75;;;2.03;;
51459;SDS011;37534;39.772;2.718;2024-03-07T10:30:14;1.40;;;0.80;;
51459;SDS011;37534;39.772;2.718;2024-03-07T10:33:06;1.48;;;1.00;;
51459;SDS011;37534;39.772;2.718;2024-03-07T10:35:32;11.57;;;2.33;;
51459;SDS011;37534;39.772;2.718;2024-03-07T10:37:58;4.05;;;1.52;;
51459;SDS011;37534;39.772;2.718;2024-03-07T10:40:31;3.42;;;1.45;;
51459;SDS011;37534;39.772;2.718;2024-03-07T10:42:58;3.30;;;1.33;;
51459;SDS011;37534;39.772;2.718;2024-03-07T10:45:28;2.92;;;1.55;;
51459;SDS011;37534;39.772;2.718;2024-03-07T10:47:55;9.77;;;1.23;;
51459;SDS011;37534;39.772;2.718;2024-03-07T10:53:14;6.38;;;1.58;;
51459;SDS011;37534;39.772;2.718;2024-03-07T10:58:42;1.92;;;1.15;;
51459;SDS011;37534;39.772;2.718;2024-03-07T11:01:24;6.07;;;3.10;;
51459;SDS011;37534;39.772;2.718;2024-03-07T11:03:51;3.42;;;2.63;;
51459;SDS011;37534;39.772;2.718;2024-03-07T11:06:17;1.30;;;1.13;;
51459;SDS011;37534;39.772;2.718;2024-03-07T11:08:44;2.20;;;1.20;;
51459;SDS011;37534;39.772;2.718;2024-03-07T11:11:11;5.88;;;1.77;;
51459;SDS011;37534;39.772;2.718;2024-03-07T11:13:38;2.63;;;1.35;;
51459;SDS011;37534;39.772;2.718;2024-03-07T11:16:05;9.23;;;1.50;;
51459;SDS011;37534;39.772;2.718;2024-03-07T11:18:33;1.85;;;1.70;;
51459;SDS011;37534;39.772;2.718;2024-03-07T11:20:58;4.97;;;1.58;;
51459;SDS011;37534;39.772;2.718;2024-03-07T11:25:54;16.25;;;10.10;;
51459;SDS011;37534;39.772;2.718;2024-03-07T11:28:27;15.73;;;12.07;;
51459;SDS011;37534;39.772;2.718;2024-03-07T11:30:54;4.45;;;3.80;;
51459;SDS011;37534;39.772;2.718;2024-03-07T11:33:19;2.53;;;2.05;;
51459;SDS011;37534;39.772;2.718;2024-03-07T11:35:48;3.58;;;3.08;;
51459;SDS011;37534;39.772;2.718;2024-03-07T11:38:14;4.00;;;2.72;;
51459;SDS011;37534;39.772;2.718;2024-03-07T11:43:07;4.85;;;2.70;;
51459;SDS011;37534;39.772;2.718;2024-03-07T11:45:32;2.13;;;1.50;;
51459;SDS011;37534;39.772;2.718;2024-03-07T11:48:03;6.85;;;2.78;;
51459;SDS011;37534;39.772;2.718;2024-03-07T11:50:33;8.15;;;2.00;;
51459;SDS011;37534;39.772;2.718;2024-03-07T11:53:03;1.90;;;1.50;;
51459;SDS011;37534;39.772;2.718;2024-03-07T11:55:33;8.98;;;7.25;;
51459;SDS011;37534;39.772;2.718;2024-03-07T11:58:17;11.80;;;2.85;;
51459;SDS011;37534;39.772;2.718;2024-03-07T12:00:46;22.48;;;14.85;;
51459;SDS011;37534;39.772;2.718;2024-03-07T12:03:12;10.38;;;4.30;;
51459;SDS011;37534;39.772;2.718;2024-03-07T12:05:50;9.70;;;5.25;;
51459;SDS011;37534;39.772;2.718;2024-03-07T12:08:17;9.05;;;4.00;;
51459;SDS011;37534;39.772;2.718;2024-03-07T12:10:44;6.53;;;4.53;;
51459;SDS011;37534;39.772;2.718;2024-03-07T12:13:10;11.50;;;2.20;;
51459;SDS011;37534;39.772;2.718;2024-03-07T12:15:37;5.63;;;2.90;;
51459;SDS011;37534;39.772;2.718;2024-03-07T12:18:05;8.85;;;3.25;;
51459;SDS011;37534;39.772;2.718;2024-03-07T12:20:36;8.45;;;3.95;;
51459;SDS011;37534;39.772;2.718;2024-03-07T12:23:02;5.93;;;2.95;;
51459;SDS011;37534;39.772;2.718;2024-03-07T12:25:30;6.18;;;1.88;;
51459;SDS011;37534;39.772;2.718;2024-03-07T12:33:16;4.32;;;2.30;;
51459;SDS011;37534;39.772;2.718;2024-03-07T12:35:43;5.97;;;1.83;;
51459;SDS011;37534;39.772;2.718;2024-03-07T12:38:10;5.13;;;2.35;;
51459;SDS011;37534;39.772;2.718;2024-03-07T12:40:36;5.80;;;2.25;;
51459;SDS011;37534;39.772;2.718;2024-03-07T12:43:12;4.97;;;2.33;;
51459;SDS011;37534;39.772;2.718;2024-03-07T12:45:50;2.33;;;1.40;;
51459;SDS011;37534;39.772;2.718;2024-03-07T12:48:19;2.50;;;2.13;;
51459;SDS011;37534;39.772;2.718;2024-03-07T12:53:21;6.72;;;2.00;;
51459;SDS011;37534;39.772;2.718;2024-03-07T12:55:47;30.45;;;3.10;;
51459;SDS011;37534;39.772;2.718;2024-03-07T12:58:13;3.53;;;1.85;;
51459;SDS011;37534;39.772;2.718;2024-03-07T13:00:42;3.85;;;1.73;;
51459;SDS011;37534;39.772;2.718;2024-03-07T13:03:08;2.20;;;1.33;;
51459;SDS011;37534;39.772;2.718;2024-03-07T13:05:35;3.13;;;1.35;;
51459;SDS011;37534;39.772;2.718;2024-03-07T13:08:05;2.15;;;1.00;;
51459;SDS011;37534;39.772;2.718;2024-03-07T13:10:39;3.78;;;1.52;;
51459;SDS011;37534;39.772;2.718;2024-03-07T13:13:07;2.30;;;1.70;;
51459;SDS011;37534;39.772;2.718;2024-03-07T13:15:35;9.80;;;4.88;;
51459;SDS011;37534;39.772;2.718;2024-03-07T13:18:04;3.38;;;1.80;;
51459;SDS011;37534;39.772;2.718;2024-03-07T13:20:31;2.83;;;1.50;;
51459;SDS011;37534;39.772;2.718;2024-03-07T13:22:57;1.63;;;1.30;;
51459;SDS011;37534;39.772;2.718;2024-03-07T13:25:25;4.93;;;1.77;;
51459;SDS011;37534;39.772;2.718;2024-03-07T13:30:20;4.68;;;2.70;;
51459;SDS011;37534;39.772;2.718;2024-03-07T13:32:55;11.80;;;2.05;;
51459;SDS011;37534;39.772;2.718;2024-03-07T13:35:25;4.95;;;2.22;;
51459;SDS011;37534;39.772;2.718;2024-03-07T13:37:54;1.27;;;0.88;;
51459;SDS011;37534;39.772;2.718;2024-03-07T13:40:21;1.77;;;1.00;;
51459;SDS011;37534;39.772;2.718;2024-03-07T13:42:55;7.40;;;6.03;;
51459;SDS011;37534;39.772;2.718;2024-03-07T13:45:25;3.25;;;2.03;;
51459;SDS011;37534;39.772;2.718;2024-03-07T13:47:55;3.00;;;1.40;;
51459;SDS011;37534;39.772;2.718;2024-03-07T13:50:22;3.25;;;1.77;;
51459;SDS011;37534;39.772;2.718;2024-03-07T13:52:50;9.25;;;2.00;;
51459;SDS011;37534;39.772;2.718;2024-03-07T13:55:47;2.85;;;1.25;;
51459;SDS011;37534;39.772;2.718;2024-03-07T13:58:17;5.35;;;1.58;;
51459;SDS011;37534;39.772;2.718;2024-03-07T14:03:59;10.90;;;1.92;;
51459;SDS011;37534;39.772;2.718;2024-03-07T14:06:50;2.55;;;1.85;;
51459;SDS011;37534;39.772;2.718;2024-03-07T14:09:41;2.97;;;1.48;;
51459;SDS011;37534;39.772;2.718;2024-03-07T14:24:02;4.30;;;1.15;;
51459;SDS011;37534;39.772;2.718;2024-03-07T14:32:47;3.13;;;1.13;;
51459;SDS011;37534;39.772;2.718;2024-03-07T14:37:55;2.75;;;1.23;;
51459;SDS011;37534;39.772;2.718;2024-03-07T14:40:31;1.85;;;1.67;;
51459;SDS011;37534;39.772;2.718;2024-03-07T14:42:58;4.00;;;1.80;;
51459;SDS011;37534;39.772;2.718;2024-03-07T14:45:31;1.30;;;1.17;;
51459;SDS011;37534;39.772;2.718;2024-03-07T14:48:02;2.40;;;1.42;;
51459;SDS011;37534;39.772;2.718;2024-03-07T14:50:29;2.65;;;1.40;;
51459;SDS011;37534;39.772;2.718;2024-03-07T14:52:58;2.78;;;1.17;;
51459;SDS011;37534;39.772;2.718;2024-03-07T14:55:24;8.15;;;1.65;;
51459;SDS011;37534;39.772;2.718;2024-03-07T14:57:51;2.20;;;1.33;;
51459;SDS011;37534;39.772;2.718;2024-03-07T15:00:17;8.75;;;1.52;;
51459;SDS011;37534;39.772;2.718;2024-03-07T15:02:47;1.60;;;0.88;;
51459;SDS011;37534;39.772;2.718;2024-03-07T15:05:16;2.40;;;1.13;;
51459;SDS011;37534;39.772;2.718;2024-03-07T15:07:45;1.45;;;1.10;;
51459;SDS011;37534;39.772;2.718;2024-03-07T15:10:14;5.07;;;1.35;;
51459;SDS011;37534;39.772;2.718;2024-03-07T15:12:47;2.20;;;0.95;;
51459;SDS011;37534;39.772;2.718;2024-03-07T15:15:13;22.77;;;13.27;;
51459;SDS011;37534;39.772;2.718;2024-03-07T15:17:42;5.32;;;3.75;;
51459;SDS011;37534;39.772;2.718;2024-03-07T15:20:11;4.07;;;2.05;;
51459;SDS011;37534;39.772;2.718;2024-03-07T15:22:56;1.83;;;1.02;;
51459;SDS011;37534;39.772;2.718;2024-03-07T15:25:24;2.80;;;1.20;;
51459;SDS011;37534;39.772;2.718;2024-03-07T15:27:51;1.42;;;1.00;;
51459;SDS011;37534;39.772;2.718;2024-03-07T15:30:17;3.58;;;1.20;;
51459;SDS011;37534;39.772;2.718;2024-03-07T15:32:44;3.13;;;1.35;;
51459;SDS011;37534;39.772;2.718;2024-03-07T15:35:12;2.35;;;0.57;;
51459;SDS011;37534;39.772;2.718;2024-03-07T15:37:42;3.63;;;1.33;;